Tiempo atmosférico en la estación meteorológica de Berga, Barcelona (690 m.)



Fecha
DESCASC
Temp. máxima en grados centígrados (hora)
DESCASC
Temp. mínima en grados centígrados (hora)
DESCASC
Temp. media en grados centígrados
DESCASC
Racha de viento máxima en m/sg (hora)
DESCASC
Velocidad máxima media en intervalos de 10 minutos(hora)
DESCASC
Precipitaciones diarias en mm
DESCASC
Precipitaciones de 00:00 a 06:00 en mm
DESCASC
Precipitaciones de 06:00 a 12:00 en mm
DESCASC
Precipitaciones de 12:00 a 18:00 en mm
DESCASC
Precipitaciones de 18:00 a 24:00 en mm
DESCASC
17-02-2019 16 (14:50) 0.9 (07:20) 8.4 6.39 (15:10) 3.33 (15:10) 0 0 0 0 0
16-02-2019 17.5 (14:40) 1.7 (02:50) 9.6 6.39 (14:20) 3.89 (14:40) 0 0 0 0 0
15-02-2019 15.5 (15:50) 0.2 (07:50) 7.9 6.11 (16:20) 3.33 (08:40) 0 0 0 0 0
14-02-2019 14.4 (16:00) -0.2 (00:00) 7.1 6.11 (07:30) 3.61 (07:30) 0 0 0 0 0
13-02-2019 13.8 (15:40) 1 (00:00) 7.4 5.56 (15:10) 3.33 (05:20) 0 0 0 0 0
12-02-2019 12.9 (16:10) -0.5 (-00:0) 6.2 6.39 (02:50) 3.33 (02:50) 0 0 0 0 0
11-02-2019 10.1 (17:00) 0.4 (00:00) 5.3 11.94 (23:30) 6.94 (23:30) 0 0 0 0 0
10-02-2019 15 (15:50) 1.9 (00:00) 8.4 10.28 (12:10) 6.39 (12:10) 0 0 0 0 0
09-02-2019 14.1 (15:50) 2.1 (00:00) 8.1 6.94 (15:10) 3.61 (16:30) 0 0 0 0 0
08-02-2019 13.4 (15:50) 3.7 (00:00) 8.5 5.83 (15:40) 4.17 (15:40) 0 0 0 0 0
07-02-2019 14.1 (13:30) 3.3 (00:00) 8.7 6.67 (14:10) 4.72 (14:00) 0 0 0 0 0
06-02-2019 15.1 (15:40) 2.1 (00:00) 8.6 5.83 (14:30) 3.33 (13:50) 0 0 0 0 0
05-02-2019 11.7 (15:30) 0 (00:00) 5.8 4.44 (12:30) 2.5 (21:50) 0 0 0 0 0
04-02-2019 10 (16:00) -3.8 (-00:0) 3.1 14.44 (00:20) 4.72 (00:10) 0 0 0 0 0
03-02-2019 5.8 (13:50) 2 (00:00) 3.9 16.39 (08:50) 7.5 (04:40) 0 0 0 0 0
02-02-2019 8 (16:50) 1 (00:00) 4.5 10.28 (23:59) 3.89 (23:20) 0 0 0 0 0
01-02-2019 11.4 (15:30) 3.6 (00:00) 7.5 13.89 (13:40) 8.61 (16:00) 7.6 3 3.8 0 0.8
31-01-2019 10.8 (15:50) -1.6 (-00:0) 4.6 5.28 (14:10) 3.33 (13:10) 0.2 0 0 0 0.2
30-01-2019 9.1 (14:40) -2.4 (-00:0) 3.4 10.83 (16:10) 7.5 (16:20) 0 0 0 0 0
29-01-2019 2.4 (17:10) -1.8 (-00:0) 0.3 5 (06:20) 2.78 (06:20) 0 0 0 0 0
28-01-2019 5.1 (14:50) -2.3 (-00:0) 1.4 11.67 (20:10) 6.11 (20:50) 1.8 0 0.2 1.4 0.2
27-01-2019 10.7 (16:40) 0.6 (00:00) 5.6 19.44 (17:20) 5 (17:00) 0 0 0 0 0
26-01-2019 11.1 (15:50) 0.4 (00:00) 5.8 4.72 (13:50) 2.5 (15:30) 0 0 0 0 0
25-01-2019 12.3 (16:50) 0.1 (00:00) 6.2 11.94 (21:20) 5 (21:10) 0 0 0 0 0
24-01-2019 5.5 (13:20) -2 (-00:0) 1.8 19.72 (16:40) 8.89 (09:40) 0 0 0 0 0
23-01-2019 1.5 (17:40) -3.3 (-00:0) -0.9 5.28 (17:10) 2.78 (17:30) 13.2 0 1.2 0.6 11.4
22-01-2019 4 (15:10) -4.1 (-00:0) 0 4.44 (13:50) 2.78 (13:40) 0 0 0 0 0
21-01-2019 8.2 (16:00) -1.7 (-00:0) 3.2 5.28 (16:10) 3.06 (14:50) 0 0 0 0 0
20-01-2019 7.4 (15:20) 0.6 (00:00) 4 5.83 (03:10) 3.33 (03:10) 0.2 0 0.2 0 0
19-01-2019 7.8 (15:20) -1.8 (-00:0) 3 6.11 (15:00) 3.33 (15:50) 0 0 0 0 0

Gráficas

Temp. máximas Temp. mínimas Temp. medias Precipitaciones Rachas de viento máximas Velocidades máximas media en intervalos de 10 minutos

Datos horarios

Fecha y hora oficial Temperatura (ºC) Velocidad del viento (km/h) Dirección del viento Racha (km/h) Dirección de racha Precipitación (mm) Presión (hPa) Tendencia (hPa) Humedad (%)
2019-02-17 23:00:00 3.3 7 Este 9 Este 0 -- -- 76
2019-02-17 22:00:00 5.3 3 Este 7 Este 0 -- -- 71
2019-02-17 21:00:00 6.9 4 Este 6 Este 0 -- -- 68
2019-02-17 20:00:00 8.7 3 Sudoeste 8 Sur 0 -- -- 61
2019-02-17 19:00:00 9.9 7 Sudoeste 13 Sudoeste 0 -- -- 47
2019-02-17 18:00:00 12.5 9 Sudoeste 18 Sudoeste 0 -- -- 36
2019-02-17 17:00:00 14.6 10 Sudoeste 20 Sudoeste 0 -- -- 29
2019-02-17 16:00:00 15.3 11 Sudoeste 23 Sudoeste 0 -- -- 26
2019-02-17 15:00:00 16 12 Sudoeste 20 Sudoeste 0 -- -- 26
2019-02-17 14:00:00 15.4 8 Sudoeste 16 Oeste 0 -- -- 25
2019-02-17 13:00:00 14.4 8 Sudoeste 16 Sudoeste 0 -- -- 27
2019-02-17 12:00:00 13.4 6 Sudoeste 13 Sudoeste 0 -- -- 26
2019-02-17 11:00:00 9.9 4 Este 10 Este 0 -- -- 33
2019-02-17 10:00:00 6.4 6 Este 14 Este 0 -- -- 40
2019-02-17 09:00:00 2.1 10 Este 18 Este 0 -- -- 49
2019-02-17 08:00:00 1.4 11 Este 17 Este 0 -- -- 49
2019-02-17 07:00:00 1.4 10 Este 16 Este 0 -- -- 49
2019-02-17 06:00:00 1.7 10 Este 15 Nordeste 0 -- -- 49
2019-02-17 05:00:00 1.8 11 Este 15 Este 0 -- -- 49
2019-02-17 04:00:00 2 10 Este 15 Este 0 -- -- 50
2019-02-17 03:00:00 3 9 Este 16 Este 0 -- -- 45
2019-02-17 02:00:00 2.7 10 Este 15 Nordeste 0 -- -- 48
2019-02-17 01:00:00 3.2 10 Este 14 Este 0 -- -- 48
2019-02-17 00:00:00 4.4 10 Este 16 Este 0 -- -- 42
2019-02-16 23:00:00 5.1 9 Este 15 Este 0 -- -- 41
2019-02-16 22:00:00 5.3 9 Este 14 Este 0 -- -- 41
2019-02-16 21:00:00 6.5 8 Este 13 Este 0 -- -- 39
2019-02-16 20:00:00 8.6 9 Este 14 Este 0 -- -- 32
2019-02-16 19:00:00 11.1 5 Este 6 Este 0 -- -- 26
2019-02-16 18:00:00 15.1 5 Oeste 15 Sur 0 -- -- 21
2019-02-16 17:00:00 16.5 10 Sudoeste 20 Sudoeste 0 -- -- 18
2019-02-16 16:00:00 17.2 11 Sudoeste 21 Sudoeste 0 -- -- 19
2019-02-16 15:00:00 17.4 12 Sudoeste 23 Oeste 0 -- -- 21
2019-02-16 14:00:00 16.5 10 Sudoeste 19 Sudoeste 0 -- -- 23
2019-02-16 13:00:00 15.1 8 Sudoeste 17 Sudoeste 0 -- -- 26
2019-02-16 12:00:00 14.3 8 Sudoeste 12 Sudoeste 0 -- -- 28
2019-02-16 11:00:00 10.2 5 Este 10 Este 0 -- -- 36
2019-02-16 10:00:00 6.3 8 Este 17 Este 0 -- -- 43
2019-02-16 09:00:00 3.5 10 Este 18 Este 0 -- -- 44
2019-02-16 08:00:00 2.7 12 Este 18 Este 0 -- -- 47
2019-02-16 07:00:00 2.3 10 Este 20 Nordeste 0 -- -- 50
2019-02-16 06:00:00 2.8 10 Este 22 Este 0 -- -- 51
2019-02-16 05:00:00 2 11 Este 18 Este 0 -- -- 55
2019-02-16 04:00:00 2.3 10 Este 17 Este 0 -- -- 55
2019-02-16 03:00:00 1.7 10 Este 16 Este 0 -- -- 60
2019-02-16 02:00:00 2.1 9 Este 14 Este 0 -- -- 59
2019-02-16 01:00:00 3.1 9 Este 15 Este 0 -- -- 56
2019-02-16 00:00:00 3.6 10 Este 15 Este 0 -- -- 55
2019-02-15 23:00:00 3.7 9 Este 14 Este 0 -- -- 56
2019-02-15 22:00:00 4.9 9 Este 13 Este 0 -- -- 52
2019-02-15 21:00:00 6.4 8 Este 12 Nordeste 0 -- -- 47
2019-02-15 20:00:00 7.8 6 Este 9 Este 0 -- -- 45
2019-02-15 19:00:00 10.4 0 Calma 8 Sudoeste 0 -- -- 37
2019-02-15 18:00:00 13.2 6 Sudoeste 13 Sudoeste 0 -- -- 31
2019-02-15 17:00:00 15 9 Sudoeste 22 Sudoeste 0 -- -- 24
2019-02-15 16:00:00 15.5 9 Sudoeste 16 Oeste 0 -- -- 24
2019-02-15 15:00:00 15.3 9 Sudoeste 18 Sudoeste 0 -- -- 23
2019-02-15 14:00:00 14.6 8 Sudoeste 17 Sur 0 -- -- 30
2019-02-15 13:00:00 13.8 9 Sudoeste 17 Sudoeste 0 -- -- 28
2019-02-15 12:00:00 12.7 7 Oeste 12 Oeste 0 -- -- 25
2019-02-15 11:00:00 9 4 Este 12 Este 0 -- -- 34
2019-02-15 10:00:00 5.9 7 Este 17 Este 0 -- -- 37
2019-02-15 09:00:00 1.6 11 Este 18 Este 0 -- -- 46
2019-02-15 08:00:00 0.4 11 Este 16 Este 0 -- -- 52
2019-02-15 07:00:00 0.9 10 Este 17 Este 0 -- -- 50
2019-02-15 06:00:00 0.8 9 Este 16 Este 0 -- -- 54
2019-02-15 05:00:00 1.2 8 Este 17 Este 0 -- -- 54
2019-02-15 04:00:00 1.5 9 Este 16 Este 0 -- -- 55
2019-02-15 03:00:00 1.8 9 Este 17 Este 0 -- -- 57
2019-02-15 02:00:00 2.3 8 Nordeste 17 Este 0 -- -- 57
2019-02-15 01:00:00 2.5 8 Este 16 Este 0 -- -- 58
2019-02-15 00:00:00 2.8 8 Este 15 Este 0 -- -- 58
2019-02-14 23:00:00 2.7 8 Este 12 Este 0 -- -- 62
2019-02-14 22:00:00 4.1 7 Este 12 Este 0 -- -- 58
2019-02-14 21:00:00 5.1 8 Este 11 Este 0 -- -- 56
2019-02-14 20:00:00 7.3 5 Este 7 Este 0 -- -- 50
2019-02-14 19:00:00 9.3 2 Nordeste 9 Sudoeste 0 -- -- 43
2019-02-14 18:00:00 12 7 Sudoeste 17 Sudoeste 0 -- -- 34
2019-02-14 17:00:00 13.9 10 Sudoeste 17 Sudoeste 0 -- -- 28
2019-02-14 16:00:00 14.4 9 Sudoeste 17 Sudoeste 0 -- -- 25
2019-02-14 15:00:00 14 9 Sudoeste 17 Sudoeste 0 -- -- 31
2019-02-14 14:00:00 13.3 11 Sudoeste 18 Sudoeste 0 -- -- 37
2019-02-14 13:00:00 12.3 11 Sudoeste 15 Sudoeste 0 -- -- 37
2019-02-14 12:00:00 11.2 7 Sudoeste 14 Sudoeste 0 -- -- 42
2019-02-14 11:00:00 8.5 5 Este 10 Este 0 -- -- 40
2019-02-14 10:00:00 5 4 Este 15 Nordeste 0 -- -- 52
2019-02-14 09:00:00 1.7 10 Este 18 Este 0 -- -- 62
2019-02-14 08:00:00 0.7 12 Este 22 Este 0 -- -- 69
2019-02-14 07:00:00 0 10 Este 15 Este 0 -- -- 77
2019-02-14 06:00:00 0.1 8 Este 14 Este 0 -- -- 81
2019-02-14 05:00:00 0.5 8 Este 14 Este 0 -- -- 81
2019-02-14 04:00:00 0.9 9 Este 13 Este 0 -- -- 82
2019-02-14 03:00:00 2.4 8 Este 14 Este 0 -- -- 76
2019-02-14 02:00:00 2.3 8 Este 16 Nordeste 0 -- -- 79
2019-02-14 01:00:00 1.6 9 Este 14 Este 0 -- -- 85
2019-02-14 00:00:00 2.9 7 Este 10 Nordeste 0 -- -- 79
2019-02-13 23:00:00 3.9 8 Este 12 Este 0 -- -- 77
2019-02-13 22:00:00 4.4 7 Este 10 Este 0 -- -- 78
2019-02-13 21:00:00 5.8 5 Este 6 Este 0 -- -- 74
2019-02-13 20:00:00 7.6 3 Este 7 Sudeste 0 -- -- 67
2019-02-13 19:00:00 9.3 2 Sur 8 Sudoeste 0 -- -- 59
2019-02-13 18:00:00 11.5 7 Sudoeste 16 Sudoeste 0 -- -- 52
2019-02-13 17:00:00 13.2 10 Sudoeste 18 Oeste 0 -- -- 47
2019-02-13 16:00:00 13.6 11 Sudoeste 20 Sudoeste 0 -- -- 44
2019-02-13 15:00:00 13.5 9 Sudoeste 19 Sudoeste 0 -- -- 43
2019-02-13 14:00:00 12.6 9 Sudoeste 19 Sudoeste 0 -- -- 43
2019-02-13 13:00:00 12.2 9 Sudoeste 19 Sudoeste 0 -- -- 44
2019-02-13 12:00:00 11 9 Sudoeste 15 Oeste 0 -- -- 43
2019-02-13 11:00:00 9.5 6 Oeste 8 Oeste 0 -- -- 44
2019-02-13 10:00:00 5.6 5 Este 15 Este 0 -- -- 51
2019-02-13 09:00:00 1.3 9 Este 15 Este 0 -- -- 64
2019-02-13 08:00:00 1.6 9 Este 17 Este 0 -- -- 62
2019-02-13 07:00:00 1.5 8 Este 14 Este 0 -- -- 63
2019-02-13 06:00:00 1.9 6 Este 18 Este 0 -- -- 63
2019-02-13 05:00:00 1.6 8 Nordeste 14 Este 0 -- -- 67
2019-02-13 04:00:00 1.4 8 Este 15 Este 0 -- -- 70
2019-02-13 03:00:00 1.4 9 Este 14 Este 0 -- -- 71
2019-02-13 02:00:00 1.9 9 Este 14 Este 0 -- -- 70
2019-02-13 01:00:00 2.2 9 Este 12 Nordeste 0 -- -- 71
2019-02-13 00:00:00 3.5 4 Nordeste 12 Nordeste 0 -- -- 65
2019-02-12 23:00:00 4 6 Nordeste 14 Este 0 -- -- 64
2019-02-12 22:00:00 4.1 8 Este 13 Este 0 -- -- 67
2019-02-12 21:00:00 4.9 9 Este 15 Este 0 -- -- 66
2019-02-12 20:00:00 6 6 Este 10 Este 0 -- -- 65
2019-02-12 19:00:00 8.3 0 Calma 8 Sudoeste 0 -- -- 59
2019-02-12 18:00:00 10.8 7 Sudoeste 15 Oeste 0 -- -- 51
2019-02-12 17:00:00 12.4 8 Sudoeste 17 Sudoeste 0 -- -- 40
2019-02-12 16:00:00 12.6 9 Sudoeste 21 Oeste 0 -- -- 41
2019-02-12 15:00:00 12.2 8 Sudoeste 18 Sudoeste 0 -- -- 43
2019-02-12 14:00:00 10.8 9 Sudoeste 21 Sudoeste 0 -- -- 49
2019-02-12 13:00:00 9.9 7 Sudoeste 17 Sudoeste 0 -- -- 52
2019-02-12 12:00:00 8.9 9 Sudoeste 13 Oeste 0 -- -- 58
2019-02-12 11:00:00 6 5 Oeste 12 Sudoeste 0 -- -- 67
2019-02-12 10:00:00 3.6 5 Este 9 Este 0 -- -- 72
2019-02-12 09:00:00 0.5 4 Sudeste 13 Sur 0 -- -- 84
2019-02-12 08:00:00 0.2 8 Este 19 Sur 0 -- -- 88
2019-02-12 07:00:00 0.2 4 Oeste 17 Sur 0 -- -- 80
2019-02-12 06:00:00 1.9 2 Noroeste 23 Sudoeste 0 -- -- 75
2019-02-12 05:00:00 5 9 Norte 21 Norte 0 -- -- 45
2019-02-12 04:00:00 3.7 5 Norte 22 Este 0 -- -- 57
2019-02-12 03:00:00 5.2 8 Norte 23 Nordeste 0 -- -- 48
2019-02-12 02:00:00 3.6 0 Calma 9 Oeste 0 -- -- 84
2019-02-12 01:00:00 4.9 4 Oeste 22 Nordeste 0 -- -- 66
2019-02-12 00:00:00 8 12 Nordeste 43 Este 0 -- -- 39
2019-02-11 23:00:00 6.1 12 Este 30 Nordeste 0 -- -- 46
2019-02-11 22:00:00 6.7 13 Este 27 Nordeste 0 -- -- 44
2019-02-11 21:00:00 7.5 14 Nordeste 30 Este 0 -- -- 42
2019-02-11 20:00:00 6 8 Este 14 Este 0 -- -- 67
2019-02-11 19:00:00 7.2 5 Este 13 Este 0 -- -- 69
2019-02-11 18:00:00 9.4 4 Este 6 Este 0 -- -- 60
2019-02-11 17:00:00 10.1 5 Este 12 Este 0 -- -- 58
2019-02-11 16:00:00 9.4 5 Este 10 Este 0 -- -- 62
2019-02-11 15:00:00 9 5 Este 8 Sudoeste 0 -- -- 63
2019-02-11 14:00:00 9.5 5 Sudoeste 16 Sudoeste 0 -- -- 60
2019-02-11 13:00:00 8.6 8 Sudoeste 15 Sudoeste 0 -- -- 69
2019-02-11 12:00:00 7.2 8 Sudoeste 14 Sudoeste 0 -- -- 77
2019-02-11 11:00:00 4.6 4 Sudeste 9 Sudoeste 0 -- -- 85
2019-02-11 10:00:00 2.3 3 Este 7 Este 0 -- -- 72
2019-02-11 09:00:00 0.9 6 Este 14 Este 0 -- -- 78
2019-02-11 08:00:00 0.6 7 Este 12 Este 0 -- -- 86
2019-02-11 07:00:00 1.9 4 Este 10 Este 0 -- -- 82
2019-02-11 06:00:00 2.3 7 Este 12 Este 0 -- -- 84
2019-02-11 05:00:00 3.4 4 Este 12 Este 0 -- -- 85
2019-02-11 04:00:00 4.2 4 Nordeste 10 Este 0 -- -- 85
2019-02-11 03:00:00 5.4 4 Este 10 Este 0 -- -- 82
2019-02-11 02:00:00 5.5 5 Este 10 Sudeste 0 -- -- 85
2019-02-11 01:00:00 5.9 6 Este 10 Nordeste 0 -- -- 83
2019-02-11 00:00:00 6.7 5 Este 10 Este 0 -- -- 80
2019-02-10 23:00:00 7.1 3 Nordeste 12 Nordeste 0 -- -- 78
2019-02-10 22:00:00 8 6 Nordeste 12 Este 0 -- -- 75
2019-02-10 21:00:00 8.7 3 Este 12 Este 0 -- -- 73
2019-02-10 20:00:00 10.2 9 Este 18 Este 0 -- -- 68
2019-02-10 19:00:00 10.8 9 Nordeste 23 Nordeste 0 -- -- 65
2019-02-10 18:00:00 13 5 Nordeste 9 Nordeste 0 -- -- 57
2019-02-10 17:00:00 14.1 2 Nordeste 23 Noroeste 0 -- -- 53
2019-02-10 16:00:00 14.9 20 Oeste 30 Oeste 0 -- -- 51
2019-02-10 15:00:00 14.5 11 Sudoeste 22 Sudoeste 0 -- -- 53
2019-02-10 14:00:00 13 4 Sudeste 21 Sudoeste 0 -- -- 55
2019-02-10 13:00:00 11.7 7 Este 37 Sudoeste 0 -- -- 62
2019-02-10 12:00:00 9.8 14 Sur 32 Sudoeste 0 -- -- 66
2019-02-10 11:00:00 7.8 5 Oeste 12 Sudoeste 0 -- -- 77
2019-02-10 10:00:00 4.6 3 Este 9 Este 0 -- -- 86
2019-02-10 09:00:00 2.3 3 Sudeste 9 Este 0 -- -- 94
2019-02-10 08:00:00 2.5 5 Este 9 Este 0 -- -- 90
2019-02-10 07:00:00 2.7 6 Este 9 Este 0 -- -- 90
2019-02-10 06:00:00 3 6 Este 9 Sudeste 0 -- -- 89
2019-02-10 05:00:00 3.1 5 Este 11 Este 0 -- -- 89
2019-02-10 04:00:00 3.9 5 Este 8 Este 0 -- -- 87
2019-02-10 03:00:00 3.4 6 Este 10 Nordeste 0 -- -- 88
2019-02-10 02:00:00 4 6 Este 9 Este 0 -- -- 85
2019-02-10 01:00:00 4.4 5 Este 10 Nordeste 0 -- -- 85
2019-02-10 00:00:00 4.8 5 Este 10 Este 0 -- -- 82
2019-02-09 23:00:00 5.5 5 Este 12 Este 0 -- -- 80
2019-02-09 22:00:00 5.8 6 Este 10 Este 0 -- -- 78
2019-02-09 21:00:00 6.7 5 Este 10 Este 0 -- -- 76
2019-02-09 20:00:00 8 5 Este 8 Este 0 -- -- 72
2019-02-09 19:00:00 10 2 Norte 6 Sur 0 -- -- 65
2019-02-09 18:00:00 11.8 5 Sudoeste 15 Sudoeste 0 -- -- 60
2019-02-09 17:00:00 13.4 8 Sudoeste 21 Sudoeste 0 -- -- 54
2019-02-09 16:00:00 13.9 9 Sudoeste 25 Sudoeste 0 -- -- 48
2019-02-09 15:00:00 13.6 10 Sudoeste 21 Oeste 0 -- -- 51
2019-02-09 14:00:00 13.2 8 Sudoeste 14 Oeste 0 -- -- 50
2019-02-09 13:00:00 12.4 7 Sudoeste 13 Oeste 0 -- -- 56
2019-02-09 12:00:00 11.3 8 Sudoeste 13 Sudoeste 0 -- -- 61
2019-02-09 11:00:00 9.7 4 Sudoeste 6 Sudoeste 0 -- -- 62
2019-02-09 10:00:00 5.7 5 Sur 15 Este 0 -- -- 76
2019-02-09 09:00:00 3 9 Este 15 Este 0 -- -- 84
2019-02-09 08:00:00 2.3 8 Este 11 Este 0 -- -- 85
2019-02-09 07:00:00 3.3 8 Este 12 Este 0 -- -- 79
2019-02-09 06:00:00 3 9 Este 13 Este 0 -- -- 82
2019-02-09 05:00:00 3.1 7 Nordeste 13 Este 0 -- -- 82
2019-02-09 04:00:00 2.7 7 Este 15 Nordeste 0 -- -- 86
2019-02-09 03:00:00 2.4 8 Este 12 Este 0 -- -- 87
2019-02-09 02:00:00 2.8 8 Este 15 Este 0 -- -- 87
2019-02-09 01:00:00 3 8 Este 13 Este 0 -- -- 87
2019-02-09 00:00:00 3.7 7 Este 13 Este 0 -- -- 86
2019-02-08 23:00:00 4.3 8 Este 13 Nordeste 0 -- -- 84
2019-02-08 22:00:00 5.1 7 Este 11 Este 0 -- -- 82
2019-02-08 21:00:00 6 6 Este 10 Este 0 -- -- 78
2019-02-08 20:00:00 7.3 4 Este 6 Este 0 -- -- 74
2019-02-08 19:00:00 8.9 4 Este 6 Este 0 -- -- 67
2019-02-08 18:00:00 11.2 3 Nordeste 10 Este 0 -- -- 59
2019-02-08 17:00:00 12.7 7 Sudoeste 19 Sudoeste 0 -- -- 53
2019-02-08 16:00:00 13.3 13 Sudoeste 21 Sudoeste 0 -- -- 53
2019-02-08 15:00:00 11.6 6 Este 12 Sudoeste 0 -- -- 66
2019-02-08 14:00:00 11 9 Sudoeste 17 Sudoeste 0 -- -- 69
2019-02-08 13:00:00 9.2 6 Este 12 Nordeste 0 -- -- 73
2019-02-08 12:00:00 7.3 0 Calma 8 Noroeste 0 -- -- 83
2019-02-08 11:00:00 5.6 3 Sudoeste 6 Oeste 0 -- -- 88
2019-02-08 10:00:00 5 4 Sudoeste 6 Sudoeste 0 -- -- 91
2019-02-08 09:00:00 4.4 3 Oeste 7 Sudoeste 0 -- -- 93
2019-02-08 08:00:00 4.7 4 Sur 6 Sur 0 -- -- 94
2019-02-08 07:00:00 4.9 2 Sudoeste 6 Sudoeste 0 -- -- 93
2019-02-08 06:00:00 5.3 4 Sudoeste 8 Sur 0 -- -- 94
2019-02-08 05:00:00 5 2 Sudeste 7 Este 0 -- -- 94
2019-02-08 04:00:00 5.2 0 Calma 5 Sudoeste 0 -- -- 91
2019-02-08 03:00:00 5.9 3 Este 6 Este 0 -- -- 89
2019-02-08 02:00:00 6.4 0 Calma 5 Este 0 -- -- 88
2019-02-08 01:00:00 6.5 3 Este 5 Este 0 -- -- 88
2019-02-08 00:00:00 7.1 3 Sudoeste 4 Este 0 -- -- 85
2019-02-07 23:00:00 7.5 2 Este 5 Sudoeste 0 -- -- 83
2019-02-07 22:00:00 7.8 4 Sudoeste 6 Sudoeste 0 -- -- 83
2019-02-07 21:00:00 8 2 Oeste 6 Oeste 0 -- -- 81
2019-02-07 20:00:00 9.1 3 Este 9 Sur 0 -- -- 76
2019-02-07 19:00:00 9.9 3 Sudoeste 12 Sudoeste 0 -- -- 77
2019-02-07 18:00:00 10.6 5 Oeste 13 Sudoeste 0 -- -- 71
2019-02-07 17:00:00 12.4 9 Sudoeste 17 Sudoeste 0 -- -- 63
2019-02-07 16:00:00 13.1 12 Sudoeste 24 Oeste 0 -- -- 59
2019-02-07 15:00:00 13.6 14 Sudoeste 24 Oeste 0 -- -- 58
2019-02-07 14:00:00 13.6 17 Oeste 24 Sudoeste 0 -- -- 57
2019-02-07 13:00:00 13.5 13 Sudoeste 19 Sudoeste 0 -- -- 57
2019-02-07 12:00:00 12.4 7 Sudoeste 10 Oeste 0 -- -- 62
2019-02-07 11:00:00 9.2 3 Sudoeste 8 Sudoeste 0 -- -- 69
2019-02-07 10:00:00 6.7 4 Sudeste 17 Nordeste 0 -- -- 75
2019-02-07 09:00:00 5.5 8 Nordeste 17 Este 0 -- -- 77
2019-02-07 08:00:00 4.4 10 Este 20 Nordeste 0 -- -- 81
2019-02-07 07:00:00 3.8 10 Este 17 Este 0 -- -- 85
2019-02-07 06:00:00 3.6 8 Este 15 Este 0 -- -- 86
2019-02-07 05:00:00 3.6 8 Este 17 Este 0 -- -- 89
2019-02-07 04:00:00 3.7 8 Este 13 Este 0 -- -- 88
2019-02-07 03:00:00 3.8 9 Este 14 Este 0 -- -- 88
2019-02-07 02:00:00 3.6 8 Este 13 Este 0 -- -- 88
2019-02-07 01:00:00 4.7 6 Este 11 Nordeste 0 -- -- 85
2019-02-07 00:00:00 5.4 8 Este 12 Nordeste 0 -- -- 84
2019-02-06 23:00:00 5.8 7 Este 12 Este 0 -- -- 83
2019-02-06 22:00:00 6.6 7 Este 12 Este 0 -- -- 81
2019-02-06 21:00:00 7.5 6 Este 10 Este 0 -- -- 79
2019-02-06 20:00:00 8.7 5 Este 7 Este 0 -- -- 76
2019-02-06 19:00:00 10.5 3 Este 6 Nordeste 0 -- -- 69
2019-02-06 18:00:00 13.1 4 Oeste 13 Sudoeste 0 -- -- 58
2019-02-06 17:00:00 14.6 8 Sudoeste 16 Sudoeste 0 -- -- 55
2019-02-06 16:00:00 15.1 8 Sudoeste 19 Sudoeste 0 -- -- 55
2019-02-06 15:00:00 14.9 11 Oeste 21 Oeste 0 -- -- 55
2019-02-06 14:00:00 14.3 12 Sudoeste 19 Sudoeste 0 -- -- 55
2019-02-06 13:00:00 13.7 9 Sudoeste 14 Sudoeste 0 -- -- 57
2019-02-06 12:00:00 12.3 5 Sudoeste 10 Oeste 0 -- -- 61
2019-02-06 11:00:00 9.6 3 Sudoeste 9 Nordeste 0 -- -- 70
2019-02-06 10:00:00 6.1 6 Este 14 Este 0 -- -- 75
2019-02-06 09:00:00 2.8 6 Este 14 Este 0 -- -- 84
2019-02-06 08:00:00 2.6 6 Este 14 Este 0 -- -- 85
2019-02-06 07:00:00 2.7 7 Este 15 Este 0 -- -- 85
2019-02-06 06:00:00 2.4 10 Este 16 Este 0 -- -- 87
2019-02-06 05:00:00 2.5 9 Este 15 Este 0 -- -- 88
2019-02-06 04:00:00 2.8 9 Este 15 Este 0 -- -- 86
2019-02-06 03:00:00 2.7 9 Este 15 Nordeste 0 -- -- 87
2019-02-06 02:00:00 2.7 9 Este 14 Este 0 -- -- 87
2019-02-06 01:00:00 3.3 8 Este 12 Este 0 -- -- 87
2019-02-06 00:00:00 3.7 8 Este 11 Este 0 -- -- 84
2019-02-05 23:00:00 4.8 8 Este 13 Este 0 -- -- 82
2019-02-05 22:00:00 5.2 8 Este 13 Este 0 -- -- 80
2019-02-05 21:00:00 5.9 8 Este 12 Este 0 -- -- 78
2019-02-05 20:00:00 7.1 5 Este 8 Este 0 -- -- 74
2019-02-05 19:00:00 8.5 2 Este 8 Sudoeste 0 -- -- 68
2019-02-05 18:00:00 10.4 3 Oeste 6 Sudoeste 0 -- -- 59
2019-02-05 17:00:00 11.4 0 Calma 9 Oeste 0 -- -- 54
2019-02-05 16:00:00 11.4 6 Oeste 10 Oeste 0 -- -- 52
2019-02-05 15:00:00 10.9 3 Oeste 11 Sudoeste 0 -- -- 52
2019-02-05 14:00:00 10.9 8 Sudoeste 12 Sudoeste 0 -- -- 49
2019-02-05 13:00:00 11.3 5 Sudoeste 16 Sudoeste 0 -- -- 50
2019-02-05 12:00:00 9.6 5 Sudoeste 11 Sudoeste 0 -- -- 49
2019-02-05 11:00:00 6.6 4 Este 9 Sudoeste 0 -- -- 59
2019-02-05 10:00:00 4.3 3 Sudeste 13 Este 0 -- -- 66
2019-02-05 09:00:00 0.6 8 Este 13 Este 0 -- -- 76
2019-02-05 08:00:00 0 5 Este 12 Este 0 -- -- 77
2019-02-05 07:00:00 0.6 5 Nordeste 13 Este 0 -- -- 72
2019-02-05 06:00:00 0.4 7 Este 13 Este 0 -- -- 73
2019-02-05 05:00:00 0.6 8 Este 13 Este 0 -- -- 72
2019-02-05 04:00:00 1.2 7 Este 13 Nordeste 0 -- -- 69
2019-02-05 03:00:00 1.7 6 Este 12 Este 0 -- -- 66
2019-02-05 02:00:00 1.7 6 Este 12 Este 0 -- -- 68
2019-02-05 01:00:00 1.8 7 Este 10 Este 0 -- -- 70
2019-02-05 00:00:00 2.4 5 Este 8 Este 0 -- -- 69
2019-02-04 23:00:00 3.1 0 Calma 6 Este 0 -- -- 65
2019-02-04 22:00:00 3.6 3 Sudoeste 6 Este 0 -- -- 64
2019-02-04 21:00:00 4.2 3 Este 7 Este 0 -- -- 60
2019-02-04 20:00:00 4.7 4 Este 7 Este 0 -- -- 60
2019-02-04 19:00:00 5.7 3 Este 11 Sur 0 -- -- 56
2019-02-04 18:00:00 7.6 3 Sudoeste 12 Sur 0 -- -- 48
2019-02-04 17:00:00 9.7 6 Sudoeste 13 Oeste 0 -- -- 34
2019-02-04 16:00:00 10 7 Sudoeste 16 Sudoeste 0 -- -- 34
2019-02-04 15:00:00 8.9 6 Sudoeste 14 Sudoeste 0 -- -- 36
2019-02-04 14:00:00 7.3 8 Sudoeste 14 Sudoeste 0 -- -- 35
2019-02-04 13:00:00 5.9 7 Sudoeste 15 Sudoeste 0 -- -- 38
2019-02-04 12:00:00 4.3 4 Oeste 18 Sudoeste 0 -- -- 38
2019-02-04 11:00:00 2.4 8 Sudoeste 15 Oeste 0 -- -- 43
2019-02-04 10:00:00 0.4 3 Sur 8 Sudoeste 0 -- -- 46
2019-02-04 09:00:00 -3.5 0 Calma 6 Este 0 -- -- 55
2019-02-04 08:00:00 -3.6 5 Sudoeste 10 Nordeste 0 -- -- 53
2019-02-04 07:00:00 -2.9 3 Sur 8 Este 0 -- -- 48
2019-02-04 06:00:00 -2.6 2 Sudeste 13 Sudoeste 0 -- -- 48
2019-02-04 05:00:00 -2.4 4 Oeste 12 Sur 0 -- -- 44
2019-02-04 04:00:00 -1 5 Sudoeste 10 Sur 0 -- -- 37
2019-02-04 03:00:00 0.5 7 Norte 15 Sudoeste 0 -- -- 31
2019-02-04 02:00:00 1.3 6 Este 14 Oeste 0 -- -- 30
2019-02-04 01:00:00 3.4 7 Sur 52 Nordeste 0 -- -- 24
2019-02-04 00:00:00 5.1 19 Norte 54 Nordeste 0 -- -- 19
2019-02-03 23:00:00 4 15 Norte 43 Norte 0 -- -- 24
2019-02-03 22:00:00 4 14 Norte 54 Noroeste 0 -- -- 26
2019-02-03 21:00:00 4 14 Norte 34 Este 0 -- -- 26
2019-02-03 20:00:00 3.5 5 Nordeste 28 Noroeste 0 -- -- 30
2019-02-03 19:00:00 3.7 8 Norte 23 Norte 0 -- -- 31
2019-02-03 18:00:00 4.3 9 Nordeste 49 Este 0 -- -- 31
2019-02-03 17:00:00 5.2 21 Nordeste 46 Nordeste 0 -- -- 30
2019-02-03 16:00:00 5.5 20 Nordeste 57 Nordeste 0 -- -- 29
2019-02-03 15:00:00 5.6 20 Nordeste 56 Nordeste 0 -- -- 29
2019-02-03 14:00:00 5.8 18 Nordeste 59 Este 0 -- -- 26
2019-02-03 13:00:00 5.5 23 Nordeste 55 Nordeste 0 -- -- 25
2019-02-03 12:00:00 5.5 18 Nordeste 48 Este 0 -- -- 25
2019-02-03 11:00:00 4.8 16 Nordeste 46 Nordeste 0 -- -- 26
2019-02-03 10:00:00 3.8 20 Nordeste 57 Nordeste 0 -- -- 26
2019-02-03 09:00:00 2.4 21 Nordeste 59 Norte 0 -- -- 25
2019-02-03 08:00:00 2.1 20 Nordeste 49 Norte 0 -- -- 25
2019-02-03 07:00:00 2.2 22 Nordeste 55 Nordeste 0 -- -- 26
2019-02-03 06:00:00 2.7 25 Nordeste 54 Nordeste 0 -- -- 25
2019-02-03 05:00:00 2.8 15 Nordeste 48 Nordeste 0 -- -- 28
2019-02-03 04:00:00 2.7 15 Nordeste 38 Este 0 -- -- 30
2019-02-03 03:00:00 2.9 19 Nordeste 55 Nordeste 0 -- -- 29
2019-02-03 02:00:00 3 20 Nordeste 42 Este 0 -- -- 30
2019-02-03 01:00:00 3.2 13 Nordeste 36 Nordeste 0 -- -- 29
2019-02-03 00:00:00 3.5 11 Nordeste 37 Nordeste 0 -- -- 31
2019-02-02 23:00:00 4 13 Nordeste 30 Este 0 -- -- 31
2019-02-02 22:00:00 4.3 11 Nordeste 30 Este 0 -- -- 32
2019-02-02 21:00:00 4 5 Norte 18 Nordeste 0 -- -- 42
2019-02-02 20:00:00 4.4 5 Nordeste 18 Este 0 -- -- 42
2019-02-02 19:00:00 5 6 Nordeste 21 Nordeste 0 -- -- 37
2019-02-02 18:00:00 6.4 8 Norte 23 Nordeste 0 -- -- 38
2019-02-02 17:00:00 7.9 11 Nordeste 25 Norte 0 -- -- 43
2019-02-02 16:00:00 6.4 3 Sudeste 8 Norte 0 -- -- 74
2019-02-02 15:00:00 5.4 3 Noroeste 7 Nordeste 0 -- -- 78
2019-02-02 14:00:00 4.5 3 Este 10 Este 0 -- -- 80
2019-02-02 13:00:00 3.9 3 Sudoeste 11 Sudoeste 0 -- -- 84
2019-02-02 12:00:00 3 4 Sur 12 Sudoeste 0 -- -- 90
2019-02-02 11:00:00 2.6 8 Sudoeste 10 Sudoeste 0 -- -- 93
2019-02-02 10:00:00 1.9 5 Oeste 8 Oeste 0 -- -- 94
2019-02-02 09:00:00 1.5 3 Sur 9 Sudoeste 0 -- -- 94
2019-02-02 08:00:00 1.2 4 Oeste 8 Sudoeste 0 -- -- 95
2019-02-02 07:00:00 1.1 5 Sudoeste 9 Sudoeste 0 -- -- 95
2019-02-02 06:00:00 1.2 2 Sudoeste 8 Este 0 -- -- 95
2019-02-02 05:00:00 1.2 4 Este 10 Este 0 -- -- 95
2019-02-02 04:00:00 1.4 3 Sudoeste 7 Sur 0 -- -- 93
2019-02-02 03:00:00 1.8 5 Sudoeste 9 Sudoeste 0 -- -- 91
2019-02-02 02:00:00 2.5 3 Sudeste 13 Este 0 -- -- 91
2019-02-02 01:00:00 3.1 3 Sudoeste 11 Este 0 -- -- 89
2019-02-02 00:00:00 3.6 3 Nordeste 16 Sur 0 -- -- 91
2019-02-01 23:00:00 4.3 9 Sudoeste 27 Sudoeste 0.2 -- -- 89
2019-02-01 22:00:00 5 14 Sudoeste 26 Sudoeste 0.4 -- -- 85
2019-02-01 21:00:00 4.9 7 Este 15 Este 0 -- -- 80
2019-02-01 20:00:00 6.2 4 Nordeste 24 Noroeste 0.2 -- -- 75
2019-02-01 19:00:00 6.6 8 Sudoeste 19 Sur 0 -- -- 65
2019-02-01 18:00:00 8.1 13 Oeste 31 Sudoeste 0 -- -- 55
2019-02-01 17:00:00 10.5 19 Oeste 49 Sudoeste 0 -- -- 50
2019-02-01 16:00:00 11 31 Oeste 49 Oeste 0 -- -- 46
2019-02-01 15:00:00 10.6 27 Oeste 50 Oeste 0 -- -- 57
2019-02-01 14:00:00 10.2 28 Oeste 50 Oeste 0 -- -- 58
2019-02-01 13:00:00 10.3 17 Oeste 34 Oeste 0 -- -- 64
2019-02-01 12:00:00 7.4 6 Sur 20 Este 0 -- -- 93
2019-02-01 11:00:00 7.4 9 Sudeste 16 Sudoeste 0.2 -- -- 99
2019-02-01 10:00:00 7 5 Sudeste 13 Nordeste 0.2 -- -- 98
2019-02-01 09:00:00 6.7 4 Este 8 Sudoeste 0.4 -- -- 97
2019-02-01 08:00:00 6.8 3 Noroeste 12 Sudoeste 1.8 -- -- 97
2019-02-01 07:00:00 7.1 5 Oeste 9 Sudoeste 1.2 -- -- 96
2019-02-01 06:00:00 7.3 4 Este 10 Este 2 -- -- 95
2019-02-01 05:00:00 6.9 5 Este 16 Sur 1 -- -- 94
2019-02-01 04:00:00 6.9 4 Sudoeste 11 Sur 0 -- -- 93
2019-02-01 03:00:00 7 0 Calma 7 Sur 0 -- -- 92
2019-02-01 02:00:00 6.3 3 Noroeste 9 Oeste 0 -- -- 94
2019-02-01 01:00:00 6 4 Este 7 Este 0 -- -- 94
2019-02-01 00:00:00 5.8 3 Este 6 Oeste 0 -- -- 95
2019-01-31 23:00:00 5.8 4 Sudoeste 8 Oeste 0 -- -- 94
2019-01-31 22:00:00 5.9 4 Nordeste 8 Este 0.2 -- -- 93
2019-01-31 21:00:00 6.2 2 Nordeste 6 Sur 0 -- -- 91
2019-01-31 20:00:00 6.3 3 Sudoeste 8 Sur 0 -- -- 87
2019-01-31 19:00:00 7.2 0 Calma 7 Sudeste 0 -- -- 82
2019-01-31 18:00:00 8.6 4 Este 8 Este 0 -- -- 77
2019-01-31 17:00:00 9.9 4 Este 14 Sudeste 0 -- -- 72
2019-01-31 16:00:00 10.8 5 Nordeste 15 Sur 0 -- -- 67
2019-01-31 15:00:00 10.2 5 Este 19 Sudoeste 0 -- -- 70
2019-01-31 14:00:00 9.7 10 Sudoeste 17 Oeste 0 -- -- 68
2019-01-31 13:00:00 7.3 8 Oeste 13 Sudoeste 0 -- -- 69
2019-01-31 12:00:00 4.2 3 Sudoeste 10 Este 0 -- -- 73
2019-01-31 11:00:00 2.6 2 Oeste 7 Sudoeste 0 -- -- 78
2019-01-31 10:00:00 1.1 4 Este 9 Este 0 -- -- 80
2019-01-31 09:00:00 -1.4 3 Este 9 Este 0 -- -- 88
2019-01-31 08:00:00 -1.5 5 Este 9 Este 0 -- -- 87
2019-01-31 07:00:00 -1.4 6 Este 10 Este 0 -- -- 88
2019-01-31 06:00:00 -1.1 6 Este 9 Nordeste 0 -- -- 87
2019-01-31 05:00:00 -0.4 5 Este 8 Este 0 -- -- 82
2019-01-31 04:00:00 0.4 4 Este 6 Este 0 -- -- 80
2019-01-31 03:00:00 0.3 4 Este 8 Este 0 -- -- 82
2019-01-31 02:00:00 0.2 2 Este 8 Este 0 -- -- 82
2019-01-31 01:00:00 0.3 4 Este 9 Este 0 -- -- 83
2019-01-31 00:00:00 0.3 5 Este 10 Este 0 -- -- 82
2019-01-30 23:00:00 0.9 7 Este 10 Sudeste 0 -- -- 79
2019-01-30 22:00:00 1 8 Este 12 Este 0 -- -- 79
2019-01-30 21:00:00 2.1 8 Este 13 Este 0 -- -- 75
2019-01-30 20:00:00 2.8 9 Oeste 13 Oeste 0 -- -- 75
2019-01-30 19:00:00 4 7 Sudoeste 18 Sur 0 -- -- 69
2019-01-30 18:00:00 5.6 14 Sudoeste 31 Oeste 0 -- -- 58
2019-01-30 17:00:00 7.3 16 Oeste 39 Noroeste 0 -- -- 51
2019-01-30 16:00:00 8 25 Oeste 37 Oeste 0 -- -- 49
2019-01-30 15:00:00 8.9 21 Oeste 36 Oeste 0 -- -- 48
2019-01-30 14:00:00 7.9 4 Este 14 Este 0 -- -- 56
2019-01-30 13:00:00 6.1 6 Sudoeste 14 Sudoeste 0 -- -- 69
2019-01-30 12:00:00 4.7 6 Sudoeste 12 Sudoeste 0 -- -- 74
2019-01-30 11:00:00 2 3 Nordeste 14 Este 0 -- -- 78
2019-01-30 10:00:00 -0.5 3 Este 14 Este 0 -- -- 95
2019-01-30 09:00:00 -2.4 7 Este 14 Este 0 -- -- 95
2019-01-30 08:00:00 -2.1 6 Este 13 Este 0 -- -- 95
2019-01-30 07:00:00 -2.3 5 Este 8 Este 0 -- -- 94
2019-01-30 06:00:00 -1.9 5 Este 9 Este 0 -- -- 94
2019-01-30 05:00:00 -1.7 5 Este 10 Nordeste 0 -- -- 94
2019-01-30 04:00:00 -1.5 5 Nordeste 12 Este 0 -- -- 92
2019-01-30 03:00:00 -1 4 Nordeste 14 Este 0 -- -- 92
2019-01-30 02:00:00 -0.5 8 Este 17 Este 0 -- -- 92
2019-01-30 01:00:00 -0.1 4 Este 14 Este 0 -- -- 91
2019-01-30 00:00:00 0.3 7 Este 13 Este 0 -- -- 91
2019-01-29 23:00:00 0.8 5 Este 9 Nordeste 0 -- -- 91
2019-01-29 22:00:00 0.6 4 Este 8 Este 0 -- -- 93
2019-01-29 21:00:00 0.2 2 Nordeste 11 Este 0 -- -- 92
2019-01-29 20:00:00 0.8 6 Este 12 Nordeste 0 -- -- 91
2019-01-29 19:00:00 1.2 5 Nordeste 9 Nordeste 0 -- -- 90
2019-01-29 18:00:00 2.1 6 Este 11 Este 0 -- -- 88
2019-01-29 17:00:00 2.3 4 Oeste 10 Sudoeste 0 -- -- 90
2019-01-29 16:00:00 2.1 6 Sudoeste 11 Sudoeste 0 -- -- 88
2019-01-29 15:00:00 2 6 Sudoeste 10 Sudoeste 0 -- -- 87
2019-01-29 14:00:00 1.8 4 Oeste 9 Sudoeste 0 -- -- 88
2019-01-29 13:00:00 1.5 5 Oeste 9 Oeste 0 -- -- 89
2019-01-29 12:00:00 0.8 4 Sudoeste 12 Sur 0 -- -- 89
2019-01-29 11:00:00 1.1 4 Oeste 9 Este 0 -- -- 87
2019-01-29 10:00:00 -0.3 4 Este 7 Este 0 -- -- 91
2019-01-29 09:00:00 -1.2 4 Este 9 Este 0 -- -- 91
2019-01-29 08:00:00 -1.5 6 Este 13 Este 0 -- -- 93
2019-01-29 07:00:00 -1.5 3 Sudoeste 18 Este 0 -- -- 89
2019-01-29 06:00:00 -0.4 6 Nordeste 16 Nordeste 0 -- -- 89
2019-01-29 05:00:00 -0.9 6 Este 11 Este 0 -- -- 93
2019-01-29 04:00:00 -0.8 5 Este 8 Este 0 -- -- 90
2019-01-29 03:00:00 0.1 4 Este 9 Nordeste 0 -- -- 88
2019-01-29 02:00:00 0.4 3 Oeste 10 Sudoeste 0 -- -- 86
2019-01-29 01:00:00 0.6 3 Nordeste 14 Este 0 -- -- 84
2019-01-29 00:00:00 1.3 6 Sudoeste 14 Sudoeste 0 -- -- 79
2019-01-28 23:00:00 2.8 5 Sur 23 Este 0 -- -- 74
2019-01-28 22:00:00 4.1 13 Nordeste 39 Nordeste 0 -- -- 67
2019-01-28 21:00:00 4.5 21 Nordeste 42 Este 0.2 -- -- 67
2019-01-28 20:00:00 4.9 19 Nordeste 40 Este 0 -- -- 61
2019-01-28 19:00:00 4.3 8 Nordeste 32 Nordeste 0 -- -- 72
2019-01-28 18:00:00 4.2 12 Nordeste 29 Nordeste 0 -- -- 78
2019-01-28 17:00:00 3.7 17 Nordeste 33 Este 0.4 -- -- 86
2019-01-28 16:00:00 5 5 Este 17 Sudoeste 0.4 -- -- 82
2019-01-28 15:00:00 4.9 10 Norte 27 Noroeste 0 -- -- 78
2019-01-28 14:00:00 2.2 8 Este 13 Nordeste 0.2 -- -- 92
2019-01-28 13:00:00 1.4 0 Calma 8 Nordeste 0.4 -- -- 88
2019-01-28 12:00:00 0.9 5 Este 14 Este 0 -- -- 84
2019-01-28 11:00:00 0 5 Nordeste 10 Sudoeste 0.2 -- -- 87
2019-01-28 10:00:00 -0.1 6 Sudoeste 11 Sudoeste 0 -- -- 74
2019-01-28 09:00:00 -1.5 5 Este 10 Este 0 -- -- 76
2019-01-28 08:00:00 -1.6 5 Sur 9 Este 0 -- -- 73
2019-01-28 07:00:00 -2 6 Este 11 Este 0 -- -- 76
2019-01-28 06:00:00 -2 4 Sudeste 9 Este 0 -- -- 75
2019-01-28 05:00:00 -1 5 Este 9 Este 0 -- -- 70
2019-01-28 04:00:00 -0.5 5 Este 12 Este 0 -- -- 67
2019-01-28 03:00:00 0.2 4 Este 10 Este 0 -- -- 63
2019-01-28 02:00:00 1.1 3 Sudeste 11 Sudoeste 0 -- -- 59
2019-01-28 01:00:00 1.7 3 Este 7 Oeste 0 -- -- 53
2019-01-28 00:00:00 2.9 4 Este 12 Norte 0 -- -- 47
2019-01-27 23:00:00 3.6 5 Nordeste 12 Sur 0 -- -- 43
2019-01-27 22:00:00 5 7 Este 16 Sudoeste 0 -- -- 38
2019-01-27 21:00:00 6.2 7 Noroeste 24 Este 0 -- -- 36
2019-01-27 20:00:00 6.1 7 Sur 15 Sudoeste 0 -- -- 36
2019-01-27 19:00:00 6.6 6 Sudoeste 35 Oeste 0 -- -- 38
2019-01-27 18:00:00 8.3 13 Noroeste 70 Oeste 0 -- -- 33
2019-01-27 17:00:00 9.9 18 Norte 48 Norte 0 -- -- 35
2019-01-27 16:00:00 9.3 3 Norte 13 Sudeste 0 -- -- 64
2019-01-27 15:00:00 10 6 Este 16 Sudoeste 0 -- -- 63
2019-01-27 14:00:00 9.1 6 Sudoeste 16 Sudoeste 0 -- -- 69
2019-01-27 13:00:00 7.1 9 Sudoeste 15 Oeste 0 -- -- 77
2019-01-27 12:00:00 4.9 3 Norte 8 Oeste 0 -- -- 82
2019-01-27 11:00:00 4 4 Nordeste 7 Nordeste 0 -- -- 86
2019-01-27 10:00:00 3 2 Este 9 Este 0 -- -- 89
2019-01-27 09:00:00 2.1 4 Este 7 Este 0 -- -- 90
2019-01-27 08:00:00 1.6 4 Este 8 Este 0 -- -- 89
2019-01-27 07:00:00 1.1 5 Este 9 Este 0 -- -- 89
2019-01-27 06:00:00 1.2 5 Este 10 Nordeste 0 -- -- 87
2019-01-27 05:00:00 0.6 7 Este 12 Este 0 -- -- 90
2019-01-27 04:00:00 0.9 7 Este 10 Este 0 -- -- 88
2019-01-27 03:00:00 1.5 7 Este 12 Este 0 -- -- 86
2019-01-27 02:00:00 1.4 8 Este 13 Este 0 -- -- 88
2019-01-27 01:00:00 1.7 8 Este 12 Este 0 -- -- 89
2019-01-27 00:00:00 2.3 6 Este 10 Este 0 -- -- 86
2019-01-26 23:00:00 2.9 8 Este 13 Este 0 -- -- 86
2019-01-26 22:00:00 3.4 8 Este 12 Nordeste 0 -- -- 85
2019-01-26 21:00:00 4.2 5 Este 9 Este 0 -- -- 85
2019-01-26 20:00:00 5.4 4 Nordeste 9 Este 0 -- -- 82
2019-01-26 19:00:00 6.5 4 Este 5 Este 0 -- -- 78
2019-01-26 18:00:00 8.4 3 Este 9 Sudeste 0 -- -- 70
2019-01-26 17:00:00 10.5 5 Sudoeste 13 Sudoeste 0 -- -- 61
2019-01-26 16:00:00 10.9 7 Sudoeste 15 Sudoeste 0 -- -- 62
2019-01-26 15:00:00 11 8 Sudoeste 15 Sudoeste 0 -- -- 64
2019-01-26 14:00:00 10.1 7 Sudoeste 17 Sudoeste 0 -- -- 67
2019-01-26 13:00:00 8.8 6 Sudoeste 13 Oeste 0 -- -- 68
2019-01-26 12:00:00 7.2 8 Sudoeste 13 Sudoeste 0 -- -- 73
2019-01-26 11:00:00 6.1 7 Sudoeste 10 Oeste 0 -- -- 77
2019-01-26 10:00:00 2.8 2 Noroeste 7 Oeste 0 -- -- 90
2019-01-26 09:00:00 0.5 5 Oeste 11 Nordeste 0 -- -- 89
2019-01-26 08:00:00 0.6 7 Este 10 Este 0 -- -- 87
2019-01-26 07:00:00 1.4 5 Sudoeste 6 Sudoeste 0 -- -- 86
2019-01-26 06:00:00 1.8 3 Sudoeste 6 Este 0 -- -- 82
2019-01-26 05:00:00 2.2 3 Oeste 8 Sudeste 0 -- -- 78
2019-01-26 04:00:00 2.9 2 Este 7 Nordeste 0 -- -- 76
2019-01-26 03:00:00 3.7 2 Este 10 Sudoeste 0 -- -- 73
2019-01-26 02:00:00 4.6 5 Oeste 10 Sudoeste 0 -- -- 68
2019-01-26 01:00:00 5.7 5 Este 12 Norte 0 -- -- 64
2019-01-26 00:00:00 6 6 Oeste 14 Sudoeste 0 -- -- 64
2019-01-25 23:00:00 7.8 5 Este 15 Sudoeste 0 -- -- 55
2019-01-25 22:00:00 7.5 9 Sudoeste 43 Sur 0 -- -- 59
2019-01-25 21:00:00 10.8 11 Sur 27 Oeste 0 -- -- 48
2019-01-25 20:00:00 10 7 Sur 20 Norte 0 -- -- 49
2019-01-25 19:00:00 9 6 Sur 19 Sudoeste 0 -- -- 53
2019-01-25 18:00:00 9.6 8 Oeste 28 Sudoeste 0 -- -- 53
2019-01-25 17:00:00 11.8 10 Sudoeste 32 Sudoeste 0 -- -- 41
2019-01-25 16:00:00 11.5 9 Sudoeste 28 Sudoeste 0 -- -- 48
2019-01-25 15:00:00 10.2 10 Sudoeste 33 Sur 0 -- -- 47
2019-01-25 14:00:00 9.4 9 Sudoeste 18 Sudoeste 0 -- -- 45
2019-01-25 13:00:00 8.5 11 Oeste 16 Sudoeste 0 -- -- 46
2019-01-25 12:00:00 7.8 6 Sudoeste 12 Oeste 0 -- -- 41
2019-01-25 11:00:00 6.1 9 Sudoeste 14 Sudoeste 0 -- -- 42
2019-01-25 10:00:00 3.4 7 Oeste 17 Oeste 0 -- -- 45
2019-01-25 09:00:00 0.9 5 Este 13 Sudoeste 0 -- -- 46
2019-01-25 08:00:00 0.1 3 Sudeste 13 Este 0 -- -- 46
2019-01-25 07:00:00 1.3 3 Oeste 22 Sudoeste 0 -- -- 40
2019-01-25 06:00:00 2 12 Sudoeste 27 Sur 0 -- -- 38
2019-01-25 05:00:00 0.3 7 Oeste 18 Sur 0 -- -- 39
2019-01-25 04:00:00 0.5 10 Oeste 17 Sudoeste 0 -- -- 38
2019-01-25 03:00:00 0.7 7 Sur 14 Sudoeste 0 -- -- 35
2019-01-25 02:00:00 0.9 4 Oeste 13 Sur 0 -- -- 33
2019-01-25 01:00:00 0.4 3 Norte 14 Sur 0 -- -- 38
2019-01-25 00:00:00 2.2 12 Sudoeste 24 Sudoeste 0 -- -- 32
2019-01-24 23:00:00 2.2 4 Norte 13 Norte 0 -- -- 28
2019-01-24 22:00:00 3.3 8 Nordeste 51 Norte 0 -- -- 26
2019-01-24 21:00:00 3.8 15 Norte 53 Norte 0 -- -- 26
2019-01-24 20:00:00 5 21 Nordeste 66 Nordeste 0 -- -- 23
2019-01-24 19:00:00 4.7 24 Norte 59 Nordeste 0 -- -- 24
2019-01-24 18:00:00 4.1 29 Nordeste 64 Nordeste 0 -- -- 28
2019-01-24 17:00:00 4.8 26 Nordeste 71 Norte 0 -- -- 29
2019-01-24 16:00:00 5.1 25 Nordeste 71 Norte 0 -- -- 31
2019-01-24 15:00:00 5.3 23 Norte 59 Norte 0 -- -- 31
2019-01-24 14:00:00 5.3 22 Nordeste 52 Nordeste 0 -- -- 31
2019-01-24 13:00:00 5.2 16 Nordeste 46 Norte 0 -- -- 34
2019-01-24 12:00:00 4.2 22 Nordeste 45 Nordeste 0 -- -- 37
2019-01-24 11:00:00 3.4 15 Nordeste 52 Nordeste 0 -- -- 40
2019-01-24 10:00:00 1.8 27 Nordeste 65 Este 0 -- -- 42
2019-01-24 09:00:00 0.9 23 Nordeste 47 Nordeste 0 -- -- 43
2019-01-24 08:00:00 0.6 22 Nordeste 48 Este 0 -- -- 48
2019-01-24 07:00:00 0.4 19 Nordeste 37 Nordeste 0.2 -- -- 50
2019-01-24 06:00:00 -0.3 9 Nordeste 23 Nordeste 0.2 -- -- 61
2019-01-24 05:00:00 -2 4 Norte 8 Norte 0 -- -- 90
2019-01-24 04:00:00 -1.4 0 Calma 12 Norte 0 -- -- 86
2019-01-24 03:00:00 -1.2 3 Norte 12 Norte 0 -- -- 91
2019-01-24 02:00:00 -1.2 3 Norte 8 Norte 0 -- -- 96
2019-01-24 01:00:00 -1 4 Norte 6 Norte 0 -- -- 97
2019-01-24 00:00:00 -0.4 3 Norte 6 Norte 1.4 -- -- 97
2019-01-23 23:00:00 -0.2 5 Norte 8 Norte 2 -- -- 97
2019-01-23 22:00:00 0.1 0 Calma 6 Norte 3.8 -- -- 97
2019-01-23 21:00:00 0.1 3 Este 10 Este 2.4 -- -- 97
2019-01-23 20:00:00 0.3 4 Este 7 Nordeste 0.4 -- -- 96
2019-01-23 19:00:00 0.6 2 Nordeste 8 Este 1.4 -- -- 95
2019-01-23 18:00:00 1.3 9 Nordeste 19 Este 0.4 -- -- 94
2019-01-23 17:00:00 1.2 9 Este 17 Este 0 -- -- 95
2019-01-23 16:00:00 1.2 5 Oeste 8 Este 0.2 -- -- 94
2019-01-23 15:00:00 1.1 3 Sur 10 Este 0 -- -- 94
2019-01-23 14:00:00 0.9 0 Calma 14 Sudoeste 0 -- -- 91
2019-01-23 13:00:00 1.4 5 Sudoeste 14 Sudeste 0 -- -- 89
2019-01-23 12:00:00 0.2 5 Este 12 Sudeste 0 -- -- 92
2019-01-23 11:00:00 -0.9 8 Este 14 Nordeste 0 -- -- 93
2019-01-23 10:00:00 -1.8 4 Nordeste 8 Nordeste 1 -- -- 94
2019-01-23 09:00:00 -2.1 3 Este 8 Este 0.2 -- -- 92
2019-01-23 08:00:00 -2.7 3 Este 6 Nordeste 0 -- -- 90
2019-01-23 07:00:00 -2.9 2 Nordeste 8 Nordeste 0 -- -- 91
2019-01-23 06:00:00 -3.3 5 Este 8 Este 0 -- -- 91
2019-01-23 05:00:00 -3 5 Este 8 Este 0 -- -- 88
2019-01-23 04:00:00 -2.7 4 Este 6 Este 0 -- -- 87
2019-01-23 03:00:00 -2.3 3 Nordeste 8 Este 0 -- -- 86
2019-01-23 02:00:00 -2.1 5 Este 8 Nordeste 0 -- -- 86
2019-01-23 01:00:00 -1.4 5 Este 9 Este 0 -- -- 84
2019-01-23 00:00:00 -1.1 6 Este 12 Este 0 -- -- 86
2019-01-22 23:00:00 -1 4 Este 8 Nordeste 0 -- -- 85
2019-01-22 22:00:00 -0.4 0 Calma 8 Este 0 -- -- 82
2019-01-22 21:00:00 0.3 2 Sudoeste 5 Este 0 -- -- 77
2019-01-22 20:00:00 0.4 0 Calma 5 Sudoeste 0 -- -- 75
2019-01-22 19:00:00 1.3 2 Sudeste 6 Sudeste 0 -- -- 72
2019-01-22 18:00:00 2.2 2 Este 7 Este 0 -- -- 68
2019-01-22 17:00:00 3.3 3 Sur 8 Sur 0 -- -- 65
2019-01-22 16:00:00 3.7 5 Sudeste 14 Sudoeste 0 -- -- 68
2019-01-22 15:00:00 3.8 5 Sudoeste 14 Sudoeste 0 -- -- 68
2019-01-22 14:00:00 3.6 9 Sudoeste 16 Sudoeste 0 -- -- 71
2019-01-22 13:00:00 3 7 Sudoeste 15 Sudoeste 0 -- -- 72
2019-01-22 12:00:00 1.4 4 Oeste 9 Sudoeste 0 -- -- 79
2019-01-22 11:00:00 -0.7 2 Sudeste 9 Sudoeste 0 -- -- 85
2019-01-22 10:00:00 -2.3 8 Sudoeste 13 Sudoeste 0 -- -- 93
2019-01-22 09:00:00 -3.5 3 Nordeste 7 Este 0 -- -- 93
2019-01-22 08:00:00 -3.5 3 Nordeste 6 Este 0 -- -- 91
2019-01-22 07:00:00 -3.6 2 Este 7 Este 0 -- -- 90
2019-01-22 06:00:00 -3.9 3 Nordeste 8 Este 0 -- -- 88
2019-01-22 05:00:00 -3.3 2 Nordeste 7 Este 0 -- -- 84
2019-01-22 04:00:00 -3.3 4 Nordeste 11 Este 0 -- -- 81
2019-01-22 03:00:00 -2.6 3 Este 9 Este 0 -- -- 76
2019-01-22 02:00:00 -2.5 6 Este 12 Este 0 -- -- 79
2019-01-22 01:00:00 -2.3 6 Este 12 Este 0 -- -- 83
2019-01-22 00:00:00 -1.7 6 Este 10 Este 0 -- -- 81
2019-01-21 23:00:00 -1.4 8 Este 13 Este 0 -- -- 88
2019-01-21 22:00:00 -0.7 4 Nordeste 11 Este 0 -- -- 89
2019-01-21 21:00:00 0.2 5 Este 9 Este 0 -- -- 91
2019-01-21 20:00:00 1.4 0 Calma 8 Nordeste 0 -- -- 89
2019-01-21 19:00:00 2.6 5 Norte 11 Sur 0 -- -- 86
2019-01-21 18:00:00 4.4 2 Oeste 13 Sur 0 -- -- 79
2019-01-21 17:00:00 5.7 4 Sudoeste 19 Sur 0 -- -- 78
2019-01-21 16:00:00 8.2 9 Sudoeste 15 Sudoeste 0 -- -- 70
2019-01-21 15:00:00 6.7 8 Sudoeste 14 Sudoeste 0 -- -- 77
2019-01-21 14:00:00 4.8 6 Sudoeste 14 Sudoeste 0 -- -- 81
2019-01-21 13:00:00 5 9 Sudoeste 15 Sudoeste 0 -- -- 81
2019-01-21 12:00:00 3.6 7 Sudoeste 14 Sudoeste 0 -- -- 85
2019-01-21 11:00:00 3.3 6 Sudoeste 10 Sudoeste 0 -- -- 81
2019-01-21 10:00:00 1.3 3 Sudoeste 8 Este 0 -- -- 89
2019-01-21 09:00:00 -1.4 4 Este 10 Este 0 -- -- 89
2019-01-21 08:00:00 -1.3 4 Nordeste 12 Este 0 -- -- 89
2019-01-21 07:00:00 -1 7 Este 12 Nordeste 0 -- -- 89
2019-01-21 06:00:00 -0.9 4 Este 13 Este 0 -- -- 91
2019-01-21 05:00:00 -0.6 8 Este 13 Nordeste 0 -- -- 92
2019-01-21 04:00:00 -0.2 8 Este 15 Este 0 -- -- 91
2019-01-21 03:00:00 0.3 7 Este 16 Este 0 -- -- 92
2019-01-21 02:00:00 0.5 8 Este 11 Este 0 -- -- 92
2019-01-21 01:00:00 1.3 6 Este 10 Nordeste 0 -- -- 92
2019-01-21 00:00:00 2.1 5 Nordeste 8 Nordeste 0 -- -- 90
2019-01-20 23:00:00 3 3 Este 7 Sudoeste 0 -- -- 93
2019-01-20 22:00:00 3.3 0 Calma 7 Este 0 -- -- 93
2019-01-20 21:00:00 3.7 3 Oeste 6 Sudoeste 0 -- -- 91
2019-01-20 20:00:00 4.5 3 Este 7 Este 0 -- -- 90
2019-01-20 19:00:00 5.2 2 Sudoeste 6 Sudeste 0 -- -- 87
2019-01-20 18:00:00 5.8 0 Calma 6 Sur 0 -- -- 85
2019-01-20 17:00:00 6.1 4 Sudoeste 12 Sudoeste 0 -- -- 82
2019-01-20 16:00:00 6.9 6 Sudoeste 14 Sudoeste 0 -- -- 80
2019-01-20 15:00:00 7.1 8 Sudoeste 14 Sudoeste 0 -- -- 82
2019-01-20 14:00:00 7.2 7 Sudoeste 10 Oeste 0 -- -- 82
2019-01-20 13:00:00 5.8 4 Sudoeste 6 Sudoeste 0 -- -- 86
2019-01-20 12:00:00 5.1 3 Este 9 Este 0 -- -- 84
2019-01-20 11:00:00 4.3 4 Nordeste 18 Este 0 -- -- 85
2019-01-20 10:00:00 3.4 4 Este 15 Este 0.2 -- -- 88
2019-01-20 09:00:00 2.9 5 Este 13 Este 0 -- -- 87
2019-01-20 08:00:00 2.3 7 Este 14 Este 0 -- -- 90
2019-01-20 07:00:00 2.6 8 Este 16 Sudeste 0 -- -- 88
2019-01-20 06:00:00 1.4 6 Este 10 Este 0 -- -- 91
2019-01-20 05:00:00 1.5 3 Nordeste 6 Este 0 -- -- 89
2019-01-20 04:00:00 1.7 3 Este 21 Este 0 -- -- 86
2019-01-20 03:00:00 1.1 9 Este 14 Este 0 -- -- 91
2019-01-20 02:00:00 0.8 5 Este 8 Este 0 -- -- 91
2019-01-20 01:00:00 1 2 Nordeste 9 Este 0 -- -- 88
2019-01-20 00:00:00 0.6 5 Este 9 Este 0 -- -- 89
2019-01-19 23:00:00 0.5 0 Calma 8 Este 0 -- -- 89
2019-01-19 22:00:00 1 2 Norte 7 Este 0 -- -- 85
2019-01-19 21:00:00 1.3 6 Este 10 Este 0 -- -- 85
2019-01-19 20:00:00 1.8 5 Este 9 Este 0 -- -- 82
2019-01-19 19:00:00 2.9 3 Este 5 Este 0 -- -- 78
2019-01-19 18:00:00 4.4 3 Este 13 Oeste 0 -- -- 72
2019-01-19 17:00:00 5.9 11 Oeste 17 Sudoeste 0 -- -- 67
2019-01-19 16:00:00 7.2 12 Sudoeste 21 Sudoeste 0 -- -- 62
2019-01-19 15:00:00 7.5 11 Sudoeste 22 Oeste 0 -- -- 63
2019-01-19 14:00:00 6.9 7 Sudoeste 17 Sudoeste 0 -- -- 68
2019-01-19 13:00:00 6.2 8 Sudoeste 15 Sudoeste 0 -- -- 71
2019-01-19 12:00:00 5.3 6 Sudoeste 11 Sudoeste 0 -- -- 73
2019-01-19 11:00:00 2.8 3 Sudoeste 11 Este 0 -- -- 78
2019-01-19 10:00:00 -0.3 6 Este 13 Este 0 -- -- 81
2019-01-19 09:00:00 -1.8 5 Este 13 Nordeste 0 -- -- 85
2019-01-19 08:00:00 -1.5 5 Este 13 Este 0 -- -- 84
2019-01-19 07:00:00 -1.2 9 Este 14 Este 0 -- -- 84
2019-01-19 06:00:00 -1 8 Este 13 Este 0 -- -- 85
2019-01-19 05:00:00 -0.6 8 Este 14 Este 0 -- -- 85
2019-01-19 04:00:00 -0.4 9 Este 12 Este 0 -- -- 86
2019-01-19 03:00:00 -0.1 9 Este 15 Nordeste 0 -- -- 85
2019-01-19 02:00:00 0.2 6 Este 13 Nordeste 0 -- -- 86
2019-01-19 01:00:00 0 7 Este 12 Este 0 -- -- 90
2019-01-19 00:00:00 0.2 4 Este 7 Este 0 -- -- 90